Latest Coastal Weather Observations for Avalon

IDV60701

Issued at 4:21 pm EDT Saturday 28 March 2015 (issued every 10 minutes, with the page automatically refreshed every 10 minutes)

About coastal observations | Map of coastal stations | Coastal observations for VIC | Marine services | Other Formats
Station Details ID: 087113 Name: AVALON AIRPORT Lat: -38.03 Lon: 144.48 Height: 10.6 m
Data from the previous 72 hours. | See also: Recent months at Avalon
Date/Time
EDT
Temp

°C
Wind Pressure Rain
since 9am
mm
Weather Cloud Vis
km
Sea
Height
m
Swell
Dir
 
Speed
knots
Gust
knots
hPa Trend Height
m
Period
s
Dir
28/04:00pm 19.2 SSW 11 15 1022.7 - 0.0 - - 10 - - - -
28/03:30pm 19.8 WSW 7 11 1023.1 - 0.0 - Partly cloudy 10 - - - -
28/03:00pm 19.1 W 5 10 1023.3 - 0.0 - Partly cloudy 10 - - - -
28/02:30pm 18.6 SW 8 10 1023.6 - 0.0 - Cloudy 10 - - - -
28/02:00pm 18.0 SW 7 10 1024.1 - 0.0 - Cloudy 10 - - - -
28/01:30pm 18.4 NNW 5 9 1024.4 - 0.0 - Cloudy 10 - - - -
28/01:00pm 17.6 W 6 11 1024.9 - 0.0 - Cloudy 10 - - - -
28/12:30pm 17.3 WNW 8 13 1025.2 - 0.0 - Cloudy 10 - - - -
28/11:30am 16.7 W 9 12 1025.7 - 0.0 - Cloudy 10 - - - -
28/11:00am 16.5 WSW 9 12 1025.7 - 0.0 - Cloudy 10 - - - -
28/10:30am 15.9 WSW 9 13 1025.8 - 0.0 - Cloudy 10 - - - -
28/10:00am 15.4 W 10 13 1026.0 - 0.0 - Cloudy 10 - - - -
28/09:30am 14.7 W 10 13 1025.9 - 0.0 - Cloudy 10 - - - -
28/09:00am 14.0 W 8 11 1025.7 - 0.0 - Cloudy 10 - - - -
28/08:30am 13.6 W 7 9 1025.5 - 0.0 - Cloudy 10 - - - -
28/08:00am 12.9 WNW 7 8 1025.3 - 0.0 - Cloudy 10 - - - -
28/07:30am 12.7 W 6 9 1025.0 - 0.0 - Cloudy 10 - - - -
28/07:00am 12.7 W 7 9 1024.9 - 0.0 - Cloudy 10 - - - -
28/06:30am 12.4 WNW 7 8 1024.7 - 0.0 - Cloudy 10 - - - -
28/06:00am 12.5 W 7 9 1024.7 - 0.0 - Cloudy 10 - - - -
28/05:30am 12.8 W 7 11 1024.7 - 0.0 - Cloudy 10 - - - -
28/05:00am 12.9 WSW 9 11 1024.5 - 0.0 - Partly cloudy 10 - - - -
28/04:30am 12.9 W 8 11 1024.4 - 0.0 - Cloudy 10 - - - -
28/04:00am 13.1 W 11 15 1024.4 - 0.0 - Cloudy 10 - - - -
28/03:30am 13.2 W 9 11 1024.4 - 0.0 - Cloudy 10 - - - -
28/03:00am 13.3 WNW 11 14 1024.4 - 0.0 - Cloudy 10 - - - -
28/02:30am 13.3 W 9 11 1024.6 - 0.0 - Cloudy 10 - - - -
28/02:00am 13.1 W 11 13 1024.7 - 0.0 - Cloudy 10 - - - -
28/01:30am 13.1 W 9 13 1024.8 - 0.0 - Partly cloudy 10 - - - -
28/01:00am 13.0 W 9 12 1025.0 - 0.0 - Cloudy 10 - - - -
28/12:30am 13.3 W 8 11 1025.1 - 0.0 - Cloudy 10 - - - -
 
Date/Time
EDT
Temp

°C
Wind Pressure Rain
since 9am
mm
Weather Cloud Vis
km
Sea
Height
m
Swell
Dir
 
Speed
knots
Gust
knots
hPa Trend Height
m
Period
s
Dir
27/11:30pm 13.7 W 9 12 1025.3 - 0.0 - Cloudy 10 - - - -
27/11:00pm 13.8 WSW 9 12 1025.3 - 0.0 - Cloudy 10 - - - -
27/10:30pm 14.2 SW 6 8 1025.3 - 0.0 - Cloudy 10 - - - -
27/10:00pm 14.6 W 8 12 1025.1 - 0.0 - Cloudy 10 - - - -
27/09:30pm 14.8 W 11 13 1025.1 - 0.0 - Cloudy 10 - - - -
27/09:00pm 15.2 WSW 11 15 1024.9 - 0.0 - Cloudy 10 - - - -
27/08:30pm 15.5 W 9 15 1024.7 - 0.0 - Cloudy 10 - - - -
27/08:00pm 15.2 WNW 8 11 1024.2 - 0.0 - Cloudy 10 - - - -
27/07:30pm 15.5 SW 7 9 1024.0 - 0.0 - Partly cloudy 10 - - - -
27/07:00pm 16.6 WSW 14 18 1023.7 - 0.0 - Partly cloudy 10 - - - -
27/06:30pm 16.8 WSW 13 18 1023.6 - 0.0 - Partly cloudy 10 - - - -
27/06:00pm 17.0 WSW 12 17 1023.3 - 0.0 - Cloudy 10 - - - -
27/05:30pm 16.5 SW 13 19 1023.2 - 0.0 - Cloudy 10 - - - -
27/05:00pm 17.1 W 12 17 1023.1 - 0.0 - Cloudy 10 - - - -
27/04:30pm 17.0 WSW 14 18 1023.1 - 0.0 - Partly cloudy 10 - - - -
27/04:00pm 17.2 W 16 22 1023.1 - 0.0 - Partly cloudy 10 - - - -
27/03:38pm 17.9 W 16 26 1023.1 - 0.0 - Partly cloudy 10 - - - -
27/03:30pm 18.2 W 16 22 1023.2 - 0.0 - Partly cloudy 10 - - - -
27/03:00pm 17.8 W 17 23 1023.3 - 0.0 - Mostly cloudy 10 - - - -
27/02:46pm 18.4 W 16 26 1023.4 - 0.0 - Cloudy 10 - - - -
27/02:30pm 17.1 W 19 24 1023.5 - 0.0 - Partly cloudy 10 - - - -
27/02:00pm 16.9 WSW 19 26 1023.8 - 0.0 - Cloudy 10 - - - -
27/01:30pm 17.1 WSW 19 25 1023.8 - 0.0 - Partly cloudy 10 - - - -
27/01:00pm 17.7 W 18 26 1023.7 - 0.0 - Partly cloudy 10 - - - -
27/12:43pm 16.3 WSW 20 30 1023.8 - 0.0 - Partly cloudy 10 - - - -
27/12:30pm 17.5 W 19 27 1023.9 - 0.0 - Partly cloudy 10 - - - -
27/12:00pm 16.4 WSW 18 26 1023.9 - 0.0 - Cloudy 10 - - - -
27/11:30am 17.2 WSW 19 26 1023.7 - 0.0 - Partly cloudy 10 - - - -
27/11:00am 15.3 WSW 19 27 1023.8 - 0.0 - Partly cloudy 10 - - - -
27/10:30am 15.9 W 19 25 1023.6 - 0.0 - Partly cloudy 10 - - - -
27/10:00am 15.4 W 17 25 1023.2 - 0.0 - Partly cloudy 10 - - - -
27/09:49am 14.5 W 17 27 1023.2 - 0.0 - Partly cloudy 10 - - - -
27/09:30am 14.4 WNW 20 28 1022.9 - 0.0 - - 10 - - - -
27/09:00am 13.6 W 18 23 1022.7 - 0.0 - Mostly clear 10 - - - -
27/08:30am 12.8 W 17 21 1022.4 - 0.0 - Partly cloudy 10 - - - -
27/08:00am 12.0 W 15 20 1021.8 - 0.0 - Partly cloudy 10 - - - -
27/07:30am 11.9 W 16 22 1021.5 - 0.0 - Partly cloudy 10 - - - -
27/07:00am 12.2 WNW 17 21 1020.9 - 0.0 - Partly cloudy 10 - - - -
27/06:30am 12.1 WNW 17 22 1020.8 - 0.0 - Partly cloudy 10 - - - -
27/06:00am 12.4 WNW 17 24 1020.2 - 0.0 - Cloudy 10 - - - -
27/05:30am 12.3 WNW 18 24 1019.9 - 0.0 - Partly cloudy 10 - - - -
27/05:00am 12.4 WNW 18 24 1019.7 - 0.0 - Partly cloudy 10 - - - -
27/04:30am 12.0 WNW 16 20 1019.7 - 0.0 - - 10 - - - -
27/04:00am 12.1 WNW 17 20 1019.4 - 0.0 - - 10 - - - -
27/03:30am 12.5 WNW 17 21 1019.4 - 0.0 - Partly cloudy 10 - - - -
27/03:00am 12.6 WNW 16 21 1019.4 - 0.0 - Cloudy 10 - - - -
27/02:30am 12.5 WNW 15 18 1019.5 - 0.0 - - 10 - - - -
27/02:00am 12.8 WNW 17 24 1019.1 - 0.0 - Partly cloudy 10 - - - -
27/01:30am 13.2 WNW 17 23 1018.9 - 0.0 - Partly cloudy 10 - - - -
27/01:00am 12.8 WNW 17 21 1018.7 - 0.0 - Partly cloudy 10 - - - -
27/12:30am 12.5 WNW 15 19 1018.7 - 0.0 - Partly cloudy 10 - - - -
27/12:00am 12.6 WNW 18 26 1018.6 - 0.0 - Mostly clear 10 - - - -
 
Date/Time
EDT
Temp

°C
Wind Pressure Rain
since 9am
mm
Weather Cloud Vis
km
Sea
Height
m
Swell
Dir
 
Speed
knots
Gust
knots
hPa Trend Height
m
Period
s
Dir
26/11:30pm 12.8 WNW 18 24 1018.5 - 0.0 - Partly cloudy 10 - - - -
26/11:00pm 12.7 WNW 18 23 1018.3 - 0.0 - Partly cloudy 10 - - - -
26/10:30pm 12.9 WNW 20 25 1018.2 - 0.0 - - 10 - - - -
26/10:00pm 12.8 WNW 18 22 1018.1 - 0.0 - Partly cloudy 10 - - - -
26/09:30pm 13.2 WNW 21 28 1017.7 - 0.0 - - 10 - - - -
26/09:00pm 13.1 WNW 20 24 1017.4 - 0.0 - Partly cloudy 10 - - - -
26/08:30pm 13.3 WNW 19 26 1017.0 - 0.0 - Partly cloudy 10 - - - -
26/08:00pm 13.1 WNW 24 30 1016.5 - 0.0 - Partly cloudy 10 - - - -
26/07:30pm 13.3 NW 23 33 1016.2 - 0.0 - Partly cloudy 10 - - - -
26/07:01pm 13.9 WNW 28 38 1015.9 - 0.0 - Partly cloudy 10 - - - -
26/07:00pm 14.0 WNW 29 38 1015.9 - 0.0 - Partly cloudy 10 - - - -
26/06:35pm 13.2 NW 22 32 1015.4 - 0.0 - Partly cloudy 10 - - - -
26/06:30pm 13.2 NW 23 32 1015.4 - 0.0 - Partly cloudy 10 - - - -
26/06:00pm 14.4 NW 25 37 1014.8 - 0.0 Rain Mostly clear 10 - - - -
26/05:51pm 14.9 NW 23 33 1015.0 - 0.0 - Partly cloudy 10 - - - -
26/05:30pm 13.7 NW 26 33 1015.1 - 0.0 - Partly cloudy 10 - - - -
26/05:09pm 15.7 NW 25 35 1015.0 - 0.0 - Partly cloudy 10 - - - -
26/05:00pm 15.4 NW 23 30 1015.1 - 0.0 - Partly cloudy 10 - - - -
26/04:34pm 13.8 NW 19 31 1015.2 - 0.0 - Partly cloudy 10 - - - -
26/04:30pm 13.8 NW 19 26 1015.3 - 0.0 - Partly cloudy 10 - - - -
26/04:00pm 16.1 NW 25 35 1015.3 - 0.0 - Partly cloudy 10 - - - -
26/03:50pm 16.2 NW 24 35 1015.3 - 0.0 - Partly cloudy 10 - - - -
26/03:30pm 16.2 WNW 29 39 1015.6 - 0.0 - Partly cloudy 10 - - - -
26/03:26pm 16.7 WNW 29 39 1015.6 - 0.0 - Cloudy 10 - - - -
26/03:21pm 16.5 WNW 27 39 1015.4 - 0.0 - Partly cloudy 10 - - - -
26/03:02pm 17.3 NW 24 34 1015.2 - 0.0 - Cloudy 10 - - - -
26/03:00pm 17.4 NW 23 32 1015.3 - 0.0 - Cloudy 10 - - - -
26/02:38pm 16.8 NW 20 32 1015.7 - 0.0 - Cloudy 10 - - - -
26/02:30pm 17.0 NW 21 29 1015.9 - 0.0 - Cloudy 10 - - - -
26/02:21pm 17.2 NW 20 30 1016.0 - 0.0 - Cloudy 10 - - - -
26/02:00pm 17.3 NW 21 30 1016.3 - 0.0 - Partly cloudy 10 - - - -
26/01:59pm 17.4 NW 20 30 1016.4 - 0.0 - Partly cloudy 10 - - - -
26/01:30pm 17.9 WNW 22 30 1016.6 - 0.0 - Partly cloudy 10 - - - -
26/01:00pm 16.6 WNW 20 25 1017.0 - 0.0 - Partly cloudy 10 - - - -
26/12:30pm 17.8 WNW 22 30 1017.1 - 0.0 - Partly cloudy 10 - - - -
26/12:20pm 17.0 WNW 21 29 1017.0 - 0.0 - Partly cloudy 10 - - - -
26/12:00pm 16.6 WNW 22 29 1017.3 - 0.0 - Partly cloudy 10 - - - -
26/11:30am 16.1 WNW 20 25 1017.6 - 0.0 - Partly cloudy 10 - - - -
26/11:00am 14.8 WNW 21 27 1017.5 - 0.0 - Partly cloudy 10 - - - -
26/10:30am 14.6 WNW 19 27 1017.4 - 0.0 - Partly cloudy 10 - - - -
26/10:00am 13.6 NW 20 28 1017.4 - 0.0 - - 10 - - - -
26/09:30am 12.9 NW 20 25 1017.3 - 0.0 - - 10 - - - -
26/09:00am 12.1 WNW 19 24 1016.9 - 0.0 - - 10 - - - -
26/08:30am 11.1 NW 14 20 1016.8 - 0.0 - - 10 - - - -
26/08:00am 10.2 NW 15 21 1016.4 - 0.0 - - 10 - - - -
26/07:39am 10.0 NW 15 25 1016.0 - 0.0 - - 10 - - - -
26/07:30am 9.9 NW 14 18 1015.9 - 0.0 - - 10 - - - -
26/07:00am 10.0 NW 13 18 1015.6 - 0.0 - - 10 - - - -
26/06:30am 10.0 NW 13 17 1015.5 - 0.0 - - 10 - - - -
26/06:00am 9.4 NNW 11 15 1015.3 - 0.0 - - 10 - - - -
26/05:30am 9.7 NW 11 15 1015.2 - 0.0 - - 10 - - - -
26/05:00am 9.7 NW 11 15 1015.2 - 0.0 - - 10 - - - -
26/04:30am 9.4 NW 9 12 1015.2 - 0.0 - - 10 - - - -
26/04:00am 9.8 NNW 9 12 1015.1 - 0.0 - Partly cloudy 10 - - - -
26/03:30am 10.3 NNW 9 11 1015.1 - 0.0 - Partly cloudy 10 - - - -
26/03:00am 10.7 NW 12 15 1014.8 - 0.0 Showers Cloudy 10 - - - -
26/02:30am 10.9 NW 12 16 1015.1 - 0.0 - Cloudy 10 - - - -
26/02:00am 10.9 WNW 15 18 1015.4 - 0.0 - Partly cloudy 10 - - - -
26/01:30am 11.1 WNW 18 24 1015.5 - 0.0 - Partly cloudy 10 - - - -
26/01:00am 11.5 W 19 25 1015.3 - 0.0 - Partly cloudy 10 - - - -
26/12:30am 11.7 WNW 17 26 1015.4 - 0.0 - Partly cloudy 10 - - - -
26/12:04am 12.5 W 25 36 1015.2 - 0.0 - Cloudy 10 - - - -
26/12:00am 12.9 W 25 32 1015.1 - 0.0 - Cloudy 10 - - - -
 
Date/Time
EDT
Temp

°C
Wind Pressure Rain
since 9am
mm
Weather Cloud Vis
km
Sea
Height
m
Swell
Dir
 
Speed
knots
Gust
knots
hPa Trend Height
m
Period
s
Dir
25/11:49pm 15.2 N 10 25 1014.2 - 0.0 - Cloudy 10 - - - -
25/11:30pm 14.7 N 10 13 1013.5 - 0.0 - Cloudy 10 - - - -
25/11:00pm 13.5 N 9 11 1013.6 - 0.0 - Partly cloudy 10 - - - -
25/10:30pm 13.3 N 9 11 1013.8 - 0.0 - - 10 - - - -
25/10:00pm 13.0 N 8 9 1014.1 - 0.0 - - 10 - - - -
25/09:30pm 14.4 N 6 8 1014.1 - 0.0 - Partly cloudy 10 - - - -
25/09:00pm 15.0 N 4 6 1014.3 - 0.0 - Partly cloudy 10 - - - -
25/08:30pm 14.5 NNE 6 8 1013.9 - 0.0 - Partly cloudy 10 - - - -
25/08:00pm 14.9 NE 6 6 1013.5 - 0.0 - Partly cloudy 10 - - - -
25/07:30pm 16.9 E 5 5 1013.2 - 0.0 - Partly cloudy 10 - - - -
25/07:00pm 17.3 E 5 6 1013.2 - 0.0 - Partly cloudy 10 - - - -
25/06:30pm 18.4 SSE 5 7 1012.9 - 0.0 - - 10 - - - -
25/06:00pm 19.1 SSE 6 9 1012.7 - 0.0 - - 10 - - - -
25/05:30pm 19.0 S 7 10 1012.7 - 0.0 - - 10 - - - -
25/05:00pm 18.8 ESE 7 9 1013.1 - 0.0 - - 10 - - - -
25/04:30pm 17.8 SE 7 11 1013.4 - 0.0 - - 10 - - - -

Other Formats:

Comma delimited format used in spreadsheet applications
http://www.bom.gov.au/fwo/IDV60701/IDV60701.94854.axf

JavaScript Object Notation format (JSON) in row-major order
http://www.bom.gov.au/fwo/IDV60701/IDV60701.94854.json